»·PEaware :: DAL86 KVGT-KVNY

DAL86 :: KVGT-KVNY

FLIGHT INFORMATION

Flight Status: Arrived
Operator:
Delta Air Lines
More flights by this operator :: More flights under this callsign
Pilot: Ernesto F. (37009)
Aircraft: BOEING 737-900
(B739)
More flights by this aircraft type
Origin: KVGT North Las Vegas
United States
Destination: KVNY Van Nuys
United States
More flights between these airports :: More routes between these airports
Route: NOTWN5 LAS V538 GFS/N0474F340 KREME JANNY5
File this flight plan on PilotEdge
Remarks: RMK / SIMBRIEF
Altitude:
(Current/Filed)
25,000ft
Speed:
(Current/Filed)
406kts
Departed: 12-Jul-23 10:19 AM
Arrived: 12-Jul-23 11:09 AM
Distance/Time
Traveled:
202nm/0:50
Distance/Time
To Go:
Arrived

Flight Plot

Page will automatically refresh every two minutes.

Flight plan parsing failed; only flown route is shown


Map Options




Map Legend


Flown Route
Filed Route
Departure Airport
Arrival Airport
Navaid (VOR, NDB)
Fix

Horizontal Profiles

Position Reports

Time Latitude Longitude Heading Altitude Ground
Speed
12-Jul-23 10:03 36.209500 -115.198969 341 2198ft 0kts
12-Jul-23 10:04 36.209500 -115.198969 341 2198ft 0kts
12-Jul-23 10:05 36.209500 -115.198969 341 2198ft 0kts
12-Jul-23 10:06 36.209500 -115.198969 341 2198ft 0kts
12-Jul-23 10:07 36.209500 -115.198969 341 2198ft 0kts
12-Jul-23 10:08 36.209500 -115.198969 340 2198ft 0kts
12-Jul-23 10:09 36.209500 -115.198969 340 2198ft 0kts
12-Jul-23 10:10 36.209500 -115.198969 340 2198ft 0kts
12-Jul-23 10:11 36.209500 -115.198969 340 2198ft 0kts
12-Jul-23 10:11 36.209504 -115.198971 341 2198ft 1kts
12-Jul-23 10:13 36.210045 -115.198824 32 2199ft 4kts
12-Jul-23 10:14 36.212088 -115.200561 313 2205ft 19kts
12-Jul-23 10:15 36.212633 -115.202677 251 2209ft 6kts
12-Jul-23 10:16 36.213100 -115.203323 358 2212ft 16kts
12-Jul-23 10:16 36.213977 -115.203299 16 2212ft 0kts
12-Jul-23 10:17 36.214169 -115.203199 31 2214ft 4kts
12-Jul-23 10:19 36.209597 -115.196248 134 2192ft 131kts
12-Jul-23 10:20 36.174099 -115.183261 242 4816ft 173kts
12-Jul-23 10:21 36.201025 -115.248492 321 4979ft 262kts
12-Jul-23 10:21 36.252267 -115.292154 338 4957ft 271kts
12-Jul-23 10:22 36.307376 -115.241347 90 7545ft 295kts
12-Jul-23 10:23 36.251671 -115.185523 177 9960ft 289kts
12-Jul-23 10:25 36.147464 -115.170531 175 10706ft 371kts
12-Jul-23 10:25 36.060307 -115.158381 181 12738ft 381kts
12-Jul-23 10:26 35.952647 -115.161716 183 14998ft 394kts
12-Jul-23 10:27 35.841142 -115.164055 183 16885ft 408kts
12-Jul-23 10:28 35.725879 -115.166072 182 18520ft 421kts
12-Jul-23 10:29 35.607160 -115.168148 182 19906ft 430kts
12-Jul-23 10:30 35.486503 -115.170262 182 21251ft 438kts
12-Jul-23 10:31 35.372197 -115.207129 225 22440ft 441kts
12-Jul-23 10:32 35.309960 -115.337545 241 23476ft 450kts
12-Jul-23 10:33 35.251082 -115.472695 241 24826ft 442kts
12-Jul-23 10:34 35.192123 -115.606180 241 25059ft 452kts
12-Jul-23 10:35 35.131546 -115.742798 241 25037ft 462kts
12-Jul-23 10:36 35.069692 -115.881758 241 25013ft 467kts
12-Jul-23 10:37 35.007255 -116.021463 241 24993ft 470kts
12-Jul-23 10:38 34.944338 -116.161703 241 24977ft 473kts
12-Jul-23 10:39 34.885981 -116.301293 245 23764ft 460kts
12-Jul-23 10:40 34.831119 -116.444565 244 23322ft 464kts
12-Jul-23 10:41 34.782818 -116.588520 264 22782ft 463kts
12-Jul-23 10:42 34.769499 -116.742997 262 21779ft 451kts
12-Jul-23 10:43 34.754632 -116.893379 262 20753ft 446kts
12-Jul-23 10:44 34.739580 -117.041733 262 19718ft 438kts
12-Jul-23 10:45 34.724617 -117.187747 262 18784ft 431kts
12-Jul-23 10:46 34.709759 -117.331135 261 17788ft 423kts
12-Jul-23 10:47 34.695073 -117.471282 261 16819ft 415kts
12-Jul-23 10:48 34.680311 -117.609967 261 15831ft 411kts
12-Jul-23 10:49 34.665800 -117.746639 261 14841ft 405kts
12-Jul-23 10:50 34.651432 -117.880946 261 13873ft 400kts
12-Jul-23 10:51 34.637117 -118.011856 261 12306ft 383kts
12-Jul-23 10:52 34.617692 -118.130146 252 10887ft 335kts
12-Jul-23 10:53 34.593978 -118.232510 253 9995ft 281kts
12-Jul-23 10:54 34.574688 -118.318503 253 8533ft 255kts
12-Jul-23 10:55 34.555812 -118.402680 253 8065ft 262kts
12-Jul-23 10:56 34.532520 -118.486415 227 7185ft 265kts
12-Jul-23 10:57 34.463974 -118.511446 173 6327ft 258kts
12-Jul-23 10:58 34.401839 -118.506208 183 5811ft 194kts
12-Jul-23 10:59 34.346441 -118.503299 177 4350ft 198kts
12-Jul-23 11:00 34.292472 -118.498195 176 3395ft 188kts
12-Jul-23 11:01 34.240919 -118.492988 175 1535ft 187kts
12-Jul-23 11:02 34.187997 -118.487659 179 2574ft 207kts
12-Jul-23 11:03 34.160706 -118.538441 286 3005ft 206kts
12-Jul-23 11:04 34.211142 -118.561450 354 2971ft 198kts
12-Jul-23 11:05 34.263734 -118.561757 33 2540ft 189kts
12-Jul-23 11:06 34.271909 -118.511184 130 1920ft 140kts
12-Jul-23 11:07 34.235155 -118.492754 175 1321ft 151kts
12-Jul-23 11:08 34.201529 -118.489587 165 762ft 24kts
12-Jul-23 11:09 34.197107 -118.489542 254 750ft 6kts

Navigation Log

Ident Type
Flight plan parsing failed, navigation log unavailable